createdAt,value
2019-01-18T00:00:38.617Z,100980.61
2019-01-18T00:03:08.035Z,100981.89
2019-01-18T00:05:37.374Z,100989.30
2019-01-18T00:08:06.704Z,100989.28
2019-01-18T00:10:36.036Z,101005.36
2019-01-18T00:13:05.435Z,101010.53
2019-01-18T00:15:34.865Z,101008.78
2019-01-18T00:18:04.193Z,101014.45
2019-01-18T00:20:33.608Z,101022.29
2019-01-18T00:23:02.915Z,101038.31
2019-01-18T00:25:32.262Z,101040.06
2019-01-18T00:28:01.635Z,101045.67
2019-01-18T00:30:31.071Z,101045.67
2019-01-18T00:33:00.472Z,101055.66
2019-01-18T00:35:29.880Z,101055.23
2019-01-18T00:37:59.290Z,101065.69
2019-01-18T00:40:28.725Z,101073.91
2019-01-18T00:42:58.057Z,101077.84
2019-01-18T00:45:27.390Z,101082.56
2019-01-18T00:47:56.755Z,101088.23
2019-01-18T00:50:26.102Z,101091.27
2019-01-18T00:52:55.441Z,101097.34
2019-01-18T00:55:24.889Z,101100.81
2019-01-18T00:57:54.340Z,101109.92
2019-01-18T01:00:25.893Z,101104.28
2019-01-18T01:02:55.387Z,101119.49
2019-01-18T01:05:25.200Z,101133.83
2019-01-18T01:07:54.568Z,101131.66
2019-01-18T01:10:23.900Z,101138.19
2019-01-18T01:12:53.227Z,101144.70
2019-01-18T01:15:22.556Z,101148.98
2019-01-18T01:17:51.895Z,101162.01
2019-01-18T01:20:22.114Z,101162.43
2019-01-18T01:22:51.502Z,101171.55
2019-01-18T01:25:20.779Z,101179.29
2019-01-18T01:27:50.267Z,101185.80
2019-01-18T01:30:21.263Z,101201.88
2019-01-18T01:32:50.597Z,101203.17
2019-01-18T01:35:19.956Z,101210.55
2019-01-18T01:37:49.340Z,101221.38
2019-01-18T01:40:20.951Z,101230.05
2019-01-18T01:42:50.249Z,101236.95
2019-01-18T01:45:19.598Z,101248.19
2019-01-18T01:47:49.021Z,101241.66
2019-01-18T01:50:20.229Z,101256.44
2019-01-18T01:52:49.605Z,101265.50
2019-01-18T01:55:18.995Z,101265.03
2019-01-18T01:57:48.389Z,101274.12
2019-01-18T02:00:19.772Z,101273.28
2019-01-18T02:02:49.083Z,101281.90
2019-01-18T02:05:18.583Z,101281.44
2019-01-18T02:07:47.921Z,101286.23
2019-01-18T02:10:17.830Z,101284.87
2019-01-18T02:12:47.263Z,101297.45
2019-01-18T02:15:18.534Z,101302.63
2019-01-18T02:17:47.931Z,101302.20
2019-01-18T02:20:18.689Z,101306.11
2019-01-18T02:22:48.058Z,101319.95
2019-01-18T02:25:17.363Z,101326.43
2019-01-18T02:27:46.743Z,101333.30
2019-01-18T02:30:21.308Z,101338.98
2019-01-18T02:32:50.753Z,101344.55
2019-01-18T02:35:20.014Z,101356.70
2019-01-18T02:37:49.360Z,101356.38
2019-01-18T02:40:18.674Z,101374.12
2019-01-18T02:42:47.944Z,101377.13
2019-01-18T02:45:18.906Z,101381.83
2019-01-18T02:47:48.235Z,101388.33
2019-01-18T02:50:17.607Z,101380.52
2019-01-18T02:52:46.917Z,101388.73
2019-01-18T02:55:16.249Z,101388.73
2019-01-18T02:58:00.970Z,101398.70
2019-01-18T03:00:35.262Z,101394.33
2019-01-18T03:03:04.616Z,101400.36
2019-01-18T03:05:33.904Z,101398.19
2019-01-18T03:08:03.169Z,101396.45
2019-01-18T03:10:32.540Z,101387.78
2019-01-18T03:13:01.806Z,101400.36
2019-01-18T03:15:31.043Z,101406.00
2019-01-18T03:18:00.428Z,101405.09
2019-01-18T03:20:29.783Z,101405.88
2019-01-18T03:22:59.068Z,101415.45
2019-01-18T03:25:29.211Z,101423.75
2019-01-18T03:27:58.523Z,101434.50
2019-01-18T03:30:27.857Z,101433.20
2019-01-18T03:32:57.140Z,101436.23
2019-01-18T03:35:26.411Z,101435.37
2019-01-18T03:37:55.669Z,101441.84
2019-01-18T03:40:25.020Z,101446.22
2019-01-18T03:42:54.308Z,101450.03
2019-01-18T03:45:23.624Z,101456.10
2019-01-18T03:47:52.868Z,101463.87
2019-01-18T03:50:26.589Z,101472.16
2019-01-18T03:52:55.866Z,101470.02
2019-01-18T03:55:25.161Z,101468.64
2019-01-18T03:57:54.473Z,101475.58
2019-01-18T04:00:28.793Z,101479.00
2019-01-18T04:02:58.048Z,101488.94
2019-01-18T04:05:27.528Z,101489.84
2019-01-18T04:07:56.870Z,101498.47
2019-01-18T04:10:26.179Z,101499.77
2019-01-18T04:12:55.455Z,101508.49
2019-01-18T04:15:24.826Z,101515.91
2019-01-18T04:17:54.134Z,101513.25
2019-01-18T04:20:23.462Z,101525.83
2019-01-18T04:22:52.771Z,101521.94
2019-01-18T04:25:29.958Z,101524.44
2019-01-18T04:27:59.289Z,101525.66
2019-01-18T04:30:33.341Z,101531.77
2019-01-18T04:32:57.919Z,101533.45
2019-01-18T04:35:27.170Z,101536.91
2019-01-18T04:37:56.434Z,101549.06
2019-01-18T04:40:26.664Z,101552.86
2019-01-18T04:42:56.024Z,101556.77
2019-01-18T04:45:25.276Z,101554.02
2019-01-18T04:47:54.594Z,101562.13
2019-01-18T04:50:25.445Z,101562.09
2019-01-18T04:52:54.772Z,101569.45
2019-01-18T04:55:24.064Z,101571.14
2019-01-18T04:57:53.368Z,101575.31
2019-01-18T05:00:27.180Z,101580.06
2019-01-18T05:02:56.472Z,101574.16
2019-01-18T05:05:25.728Z,101571.88
2019-01-18T05:07:54.977Z,101572.43
2019-01-18T05:10:25.747Z,101579.64
2019-01-18T05:12:55.001Z,101582.55
2019-01-18T05:15:26.437Z,101587.66
2019-01-18T05:17:55.695Z,101593.28
2019-01-18T05:20:24.982Z,101592.30
2019-01-18T05:22:54.235Z,101599.18
2019-01-18T05:25:23.483Z,101597.56
2019-01-18T05:27:52.772Z,101609.19
2019-01-18T05:30:24.244Z,101614.50
2019-01-18T05:32:53.534Z,101621.34
2019-01-18T05:35:22.866Z,101631.28
2019-01-18T05:37:52.154Z,101635.58
2019-01-18T05:40:21.534Z,101639.95
2019-01-18T05:42:50.766Z,101637.35
2019-01-18T05:45:20.917Z,101643.93
2019-01-18T05:47:52.887Z,101648.20
2019-01-18T05:50:24.131Z,101646.89
2019-01-18T05:52:53.433Z,101648.32
2019-01-18T05:55:22.712Z,101650.92
2019-01-18T05:57:52.079Z,101646.94
2019-01-18T06:00:55.381Z,101654.25
2019-01-18T06:03:20.808Z,101663.30
2019-01-18T06:05:50.066Z,101662.88
2019-01-18T06:08:19.431Z,101666.52
2019-01-18T06:10:48.703Z,101673.67
2019-01-18T06:13:18.030Z,101677.65
2019-01-18T06:15:47.374Z,101675.48
2019-01-18T06:18:16.595Z,101687.50
2019-01-18T06:20:45.845Z,101688.91
2019-01-18T06:23:15.093Z,101701.84
2019-01-18T06:25:44.432Z,101698.20
2019-01-18T06:28:13.865Z,101704.70
2019-01-18T06:30:43.303Z,101707.73
2019-01-18T06:33:12.553Z,101718.80
2019-01-18T06:35:41.837Z,101719.29
2019-01-18T06:38:11.258Z,101722.20
2019-01-18T06:40:40.537Z,101730.83
2019-01-18T06:43:09.945Z,101726.44
2019-01-18T06:45:39.270Z,101726.30
2019-01-18T06:48:08.555Z,101730.02
2019-01-18T06:50:37.866Z,101732.42
2019-01-18T06:53:07.295Z,101745.73
2019-01-18T06:55:36.572Z,101749.09
2019-01-18T06:58:05.952Z,101741.20
2019-01-18T07:00:35.488Z,101748.03
2019-01-18T07:03:05.505Z,101746.21
2019-01-18T07:05:34.798Z,101743.94
2019-01-18T07:08:04.188Z,101752.64
2019-01-18T07:10:33.465Z,101750.42
2019-01-18T07:13:02.775Z,101755.56
2019-01-18T07:15:32.058Z,101755.87
2019-01-18T07:18:01.392Z,101762.36
2019-01-18T07:20:30.691Z,101765.88
2019-01-18T07:22:59.948Z,101772.06
2019-01-18T07:25:30.628Z,101774.89
2019-01-18T07:27:59.975Z,101782.20
2019-01-18T07:30:40.201Z,101787.16
2019-01-18T07:33:11.561Z,101786.77
2019-01-18T07:35:40.943Z,101791.98
2019-01-18T07:38:10.283Z,101795.02
2019-01-18T07:40:39.543Z,101798.48
2019-01-18T07:43:08.835Z,101797.30
2019-01-18T07:45:38.130Z,101805.94
2019-01-18T07:48:08.558Z,101808.72
2019-01-18T07:50:37.858Z,101807.44
2019-01-18T07:53:07.197Z,101817.60
2019-01-18T07:55:36.475Z,101814.39
2019-01-18T07:58:05.815Z,101818.95
2019-01-18T08:00:35.271Z,101813.63
2019-01-18T08:03:04.587Z,101813.05
2019-01-18T08:05:33.888Z,101818.50
2019-01-18T08:08:03.274Z,101808.36
2019-01-18T08:10:32.557Z,101820.61
2019-01-18T08:13:01.916Z,101814.60
2019-01-18T08:15:31.219Z,101817.25
2019-01-18T08:18:00.631Z,101828.33
2019-01-18T08:20:31.045Z,101836.19
2019-01-18T08:23:01.378Z,101837.83
2019-01-18T08:25:30.772Z,101840.73
2019-01-18T08:28:00.507Z,101844.41
2019-01-18T08:30:30.907Z,101847.72
2019-01-18T08:33:00.164Z,101853.03
2019-01-18T08:35:30.497Z,101858.07
2019-01-18T08:37:59.911Z,101853.58
2019-01-18T08:40:37.638Z,101865.13
2019-01-18T08:43:09.059Z,101858.13
2019-01-18T08:45:47.092Z,101860.98
2019-01-18T08:48:16.361Z,101866.16
2019-01-18T08:50:45.651Z,101868.39
2019-01-18T08:53:14.958Z,101867.10
2019-01-18T08:55:44.301Z,101869.42
2019-01-18T08:58:33.007Z,101875.70
2019-01-18T09:01:02.277Z,101885.88
2019-01-18T09:03:31.637Z,101879.77
2019-01-18T09:06:00.964Z,101889.44
2019-01-18T09:08:30.329Z,101888.13
2019-01-18T09:10:59.664Z,101900.14
2019-01-18T09:13:28.968Z,101902.66
2019-01-18T09:15:58.227Z,101902.06
2019-01-18T09:18:27.464Z,101908.19
2019-01-18T09:20:56.781Z,101914.31
2019-01-18T09:23:26.068Z,101907.97
2019-01-18T09:25:55.335Z,101914.97
2019-01-18T09:28:24.629Z,101915.13
2019-01-18T09:30:53.913Z,101914.58
2019-01-18T09:33:23.167Z,101922.80
2019-01-18T09:35:52.437Z,101924.83
2019-01-18T09:38:21.759Z,101916.05
2019-01-18T09:40:51.063Z,101929.03
2019-01-18T09:43:20.393Z,101921.55
2019-01-18T09:45:49.695Z,101924.94
2019-01-18T09:48:19.072Z,101932.38
2019-01-18T09:50:48.352Z,101937.44
2019-01-18T09:53:17.621Z,101937.43
2019-01-18T09:55:46.891Z,101931.69
2019-01-18T09:58:16.273Z,101939.22
2019-01-18T10:00:45.541Z,101937.25
2019-01-18T10:03:14.850Z,101935.56
2019-01-18T10:05:44.144Z,101937.78
2019-01-18T10:08:13.586Z,101945.13
2019-01-18T10:10:42.990Z,101943.62
2019-01-18T10:13:12.242Z,101945.98
2019-01-18T10:15:45.772Z,101946.95
2019-01-18T10:18:15.477Z,101943.61
2019-01-18T10:20:44.806Z,101942.00
2019-01-18T10:23:14.092Z,101946.05
2019-01-18T10:25:43.398Z,101952.70
2019-01-18T10:28:12.791Z,101954.05
2019-01-18T10:30:42.213Z,101951.87
2019-01-18T10:33:11.604Z,101956.48
2019-01-18T10:35:40.885Z,101949.55
2019-01-18T10:38:10.145Z,101947.92
2019-01-18T10:40:39.443Z,101946.38
2019-01-18T10:43:08.780Z,101943.36
2019-01-18T10:45:38.109Z,101940.45
2019-01-18T10:48:07.393Z,101944.05
2019-01-18T10:50:36.741Z,101944.15
2019-01-18T10:53:06.106Z,101946.03
2019-01-18T10:55:35.390Z,101943.51
2019-01-18T10:58:04.706Z,101951.33
2019-01-18T11:00:35.700Z,101943.01
2019-01-18T11:03:05.675Z,101947.93
2019-01-18T11:05:35.063Z,101942.38
2019-01-18T11:08:04.485Z,101940.33
2019-01-18T11:10:33.736Z,101950.55
2019-01-18T11:13:03.071Z,101940.16
2019-01-18T11:15:35.906Z,101933.70
2019-01-18T11:18:01.663Z,101942.07
2019-01-18T11:20:40.124Z,101941.66
2019-01-18T11:23:06.366Z,101935.91
2019-01-18T11:25:35.667Z,101936.48
2019-01-18T11:28:04.931Z,101932.16
2019-01-18T11:30:34.208Z,101931.33
2019-01-18T11:33:03.495Z,101932.38
2019-01-18T11:35:32.903Z,101929.62
2019-01-18T11:38:02.231Z,101935.08
2019-01-18T11:40:31.527Z,101940.66
2019-01-18T11:43:00.807Z,101929.87
2019-01-18T11:45:30.089Z,101921.21
2019-01-18T11:47:59.381Z,101921.21
2019-01-18T11:50:28.727Z,101931.11
2019-01-18T11:52:58.010Z,101933.08
2019-01-18T11:55:27.347Z,101931.16
2019-01-18T11:57:56.587Z,101922.83
2019-01-18T12:00:26.942Z,101928.49
2019-01-18T12:02:56.264Z,101925.33
2019-01-18T12:05:25.689Z,101921.72
2019-01-18T12:07:54.951Z,101924.95
2019-01-18T12:10:29.612Z,101935.08
2019-01-18T12:12:58.993Z,101932.11
2019-01-18T12:15:28.937Z,101930.22
2019-01-18T12:17:58.183Z,101921.64
2019-01-18T12:20:32.503Z,101925.11
2019-01-18T12:23:01.841Z,101928.95
2019-01-18T12:25:31.283Z,101922.13
2019-01-18T12:28:00.743Z,101921.94
2019-01-18T12:30:32.129Z,101929.05
2019-01-18T12:33:01.379Z,101925.35
2019-01-18T12:35:30.679Z,101881.03
2019-01-18T12:38:00.021Z,101928.58
2019-01-18T12:40:29.283Z,101924.11
2019-01-18T12:42:58.756Z,101933.70
2019-01-18T12:45:27.989Z,101933.31
2019-01-18T12:47:57.340Z,101934.11
2019-01-18T12:50:31.937Z,101923.78
2019-01-18T12:53:01.339Z,101922.05
2019-01-18T12:55:30.811Z,101922.20
2019-01-18T12:58:00.253Z,101931.89
2019-01-18T13:00:29.628Z,101925.59
2019-01-18T13:02:58.953Z,101924.83
2019-01-18T13:05:51.985Z,101922.20
2019-01-18T13:08:21.430Z,101923.91
2019-01-18T13:10:50.864Z,101923.91
2019-01-18T13:13:20.123Z,101921.42
2019-01-18T13:16:06.499Z,101921.42
2019-01-18T13:18:35.827Z,101926.20
2019-01-18T13:21:05.293Z,101926.09
2019-01-18T13:23:34.637Z,101920.42
2019-01-18T13:26:04.012Z,101925.28
2019-01-18T13:28:33.364Z,101929.34
2019-01-18T13:31:02.726Z,101932.00
2019-01-18T13:33:31.992Z,101936.80
2019-01-18T13:36:01.829Z,101938.56
2019-01-18T13:38:33.538Z,101933.33
2019-01-18T13:41:00.464Z,101938.11
2019-01-18T13:43:29.731Z,101934.16
2019-01-18T13:45:59.061Z,101942.92
2019-01-18T13:48:28.306Z,101940.29
2019-01-18T13:50:57.588Z,101945.97
2019-01-18T13:53:26.932Z,101943.34
2019-01-18T13:55:56.261Z,101945.53
2019-01-18T13:58:25.565Z,101948.98
2019-01-18T14:00:54.945Z,101951.56
2019-01-18T14:03:24.226Z,101947.16
2019-01-18T14:05:55.708Z,101952.84
2019-01-18T14:08:25.109Z,101953.68
2019-01-18T14:10:54.465Z,101959.33
2019-01-18T14:13:23.805Z,101957.12
2019-01-18T14:15:53.105Z,101950.08
2019-01-18T14:18:22.456Z,101980.24
2019-01-18T14:20:51.721Z,101955.28
2019-01-18T14:23:21.019Z,101954.41
2019-01-18T14:25:50.412Z,101961.86
2019-01-18T14:28:19.699Z,101964.05
2019-01-18T14:30:48.982Z,101961.83
2019-01-18T14:33:18.291Z,101967.92
2019-01-18T14:35:47.560Z,101972.77
2019-01-18T14:38:16.962Z,101967.52
2019-01-18T14:40:46.233Z,101970.98
2019-01-18T14:43:15.579Z,101966.17
2019-01-18T14:45:47.699Z,101969.66
2019-01-18T14:48:17.739Z,101960.90
2019-01-18T14:50:47.031Z,101970.92
2019-01-18T14:53:16.435Z,101967.83
2019-01-18T14:55:45.717Z,101972.58
2019-01-18T14:58:15.141Z,101969.91
2019-01-18T15:00:44.424Z,101976.91
2019-01-18T15:03:16.420Z,101976.03
2019-01-18T15:05:45.831Z,101983.42
2019-01-18T15:08:15.095Z,101979.47
2019-01-18T15:10:44.349Z,101982.52
2019-01-18T15:13:16.144Z,101984.22
2019-01-18T15:15:45.500Z,101982.90
2019-01-18T15:18:15.589Z,101987.22
2019-01-18T15:20:46.633Z,101976.70
2019-01-18T15:23:14.264Z,101985.84
2019-01-18T15:25:43.598Z,101982.25
2019-01-18T15:28:12.871Z,101985.64
2019-01-18T15:30:42.408Z,101989.08
2019-01-18T15:33:11.726Z,101983.81
2019-01-18T15:35:41.087Z,101993.80
2019-01-18T15:38:11.648Z,101991.16
2019-01-18T15:40:43.931Z,101993.70
2019-01-18T15:43:13.833Z,101993.71
2019-01-18T15:45:43.122Z,101993.69
2019-01-18T15:48:12.401Z,101995.80
2019-01-18T15:50:42.229Z,101992.72
2019-01-18T15:53:11.474Z,102004.03
2019-01-18T15:55:40.806Z,102000.54
2019-01-18T15:58:10.366Z,102001.41
2019-01-18T16:00:48.523Z,102003.56
2019-01-18T16:03:17.797Z,102005.34
2019-01-18T16:05:49.276Z,101999.63
2019-01-18T16:08:18.579Z,102007.55
2019-01-18T16:10:47.869Z,102004.41
2019-01-18T16:13:17.173Z,102008.73
2019-01-18T16:16:18.060Z,102008.27
2019-01-18T16:18:47.464Z,102010.41
2019-01-18T16:21:16.820Z,102009.54
2019-01-18T16:23:46.133Z,102016.05
2019-01-18T16:26:15.412Z,102014.73
2019-01-18T16:28:44.739Z,102015.58
2019-01-18T16:31:14.181Z,102008.20
2019-01-18T16:33:43.469Z,102013.44
2019-01-18T16:36:12.894Z,102018.23
2019-01-18T16:38:42.134Z,102013.84
2019-01-18T16:41:11.580Z,102004.61
2019-01-18T16:43:43.719Z,102011.55
2019-01-18T16:46:13.071Z,102010.65
2019-01-18T16:48:42.397Z,102011.52
2019-01-18T16:51:11.783Z,102010.65
2019-01-18T16:53:41.052Z,102007.96
2019-01-18T16:56:10.445Z,102017.08
2019-01-18T16:58:39.739Z,102011.34
2019-01-18T17:01:10.190Z,102020.02
2019-01-18T17:03:39.560Z,102016.03
2019-01-18T17:06:08.991Z,102023.83
2019-01-18T17:08:38.499Z,102023.80
2019-01-18T17:11:07.984Z,102021.58
2019-01-18T17:13:39.052Z,102018.92
2019-01-18T17:16:08.533Z,102017.58
2019-01-18T17:18:37.847Z,102024.52
2019-01-18T17:21:10.693Z,102023.16
2019-01-18T17:23:39.987Z,102022.69
2019-01-18T17:26:09.434Z,102029.22
2019-01-18T17:28:38.800Z,102022.25
2019-01-18T17:31:08.123Z,102021.77
2019-01-18T17:33:38.589Z,102025.23
2019-01-18T17:36:18.032Z,102030.89
2019-01-18T17:39:15.986Z,102029.11
2019-01-18T17:42:39.553Z,102025.58
2019-01-18T17:45:47.537Z,102022.09
2019-01-18T17:49:07.921Z,102026.84
2019-01-18T17:52:37.022Z,102023.78
2019-01-18T17:55:56.803Z,102032.94
2019-01-18T17:59:16.984Z,102032.38
2019-01-18T18:02:09.387Z,102028.32
2019-01-18T18:05:13.686Z,102034.78
2019-01-18T18:08:09.591Z,102039.08
2019-01-18T18:11:29.671Z,102039.08
2019-01-18T18:14:29.880Z,102042.09
2019-01-18T18:17:56.320Z,102045.61
2019-01-18T18:21:03.610Z,102041.26
2019-01-18T18:24:06.247Z,102048.84
2019-01-18T18:27:25.637Z,102054.15
2019-01-18T18:30:51.833Z,102052.41
2019-01-18T18:34:11.717Z,102045.83
2019-01-18T18:37:19.866Z,102054.94
2019-01-18T18:40:19.674Z,102061.12
2019-01-18T18:43:24.394Z,102062.03
2019-01-18T18:46:26.100Z,102059.29
2019-01-18T18:49:20.724Z,102064.47
2019-01-18T18:52:46.859Z,102064.13
2019-01-18T18:55:55.801Z,102071.00
2019-01-18T18:59:06.273Z,102067.95
2019-01-18T19:02:11.959Z,102070.08
2019-01-18T19:05:03.241Z,102070.56
2019-01-18T19:08:17.956Z,102074.78
2019-01-18T19:11:37.587Z,102083.97
2019-01-18T19:14:47.771Z,102072.60
2019-01-18T19:17:46.865Z,102066.41
2019-01-18T19:20:46.524Z,102069.47
2019-01-18T19:23:53.288Z,102070.81
2019-01-18T19:26:51.305Z,102064.24
2019-01-18T19:30:04.230Z,102070.33
2019-01-18T19:33:27.686Z,102070.77
2019-01-18T19:36:38.033Z,102072.91
2019-01-18T19:39:59.209Z,102073.77
2019-01-18T19:43:16.213Z,102069.77
2019-01-18T19:46:32.038Z,102071.88
2019-01-18T19:49:27.508Z,102064.82
2019-01-18T19:52:16.517Z,102063.81
2019-01-18T19:55:22.722Z,102057.61
2019-01-18T19:58:34.042Z,102070.19
2019-01-18T20:01:27.652Z,102069.26
2019-01-18T20:04:51.202Z,102068.77
2019-01-18T20:08:03.250Z,102067.37
2019-01-18T20:10:48.595Z,102074.61
2019-01-18T20:13:37.775Z,102075.75
2019-01-18T20:16:23.443Z,102075.20
2019-01-18T20:19:34.623Z,102083.80
2019-01-18T20:22:44.135Z,102079.34
2019-01-18T20:25:32.712Z,102084.94
2019-01-18T20:28:44.779Z,102088.78
2019-01-18T20:31:36.614Z,102083.95
2019-01-18T20:34:44.489Z,102088.63
2019-01-18T20:37:46.981Z,102085.95
2019-01-18T20:41:22.581Z,102080.63
2019-01-18T20:44:05.719Z,102084.41
2019-01-18T20:47:37.985Z,102095.54
2019-01-18T20:50:54.905Z,102096.08
2019-01-18T20:54:01.378Z,102095.14
2019-01-18T20:57:04.854Z,102094.90
2019-01-18T20:59:56.392Z,102104.65
2019-01-18T21:03:10.240Z,102100.87
2019-01-18T21:05:49.633Z,102098.89
2019-01-18T21:09:01.512Z,102098.67
2019-01-18T21:11:39.597Z,102069.73
2019-01-18T21:15:02.309Z,102105.69
2019-01-18T21:18:07.881Z,102110.77
2019-01-18T21:20:51.380Z,102103.30
2019-01-18T21:23:43.321Z,102109.31
2019-01-18T21:26:54.279Z,102112.29
2019-01-18T21:29:56.498Z,102110.94
2019-01-18T21:33:06.329Z,102115.64
2019-01-18T21:36:10.668Z,102114.34
2019-01-18T21:38:58.924Z,102115.13
2019-01-18T21:42:01.781Z,102112.47
2019-01-18T21:44:48.460Z,102113.75
2019-01-18T21:47:59.800Z,102117.58
2019-01-18T21:51:04.795Z,102115.80
2019-01-18T21:53:58.549Z,102109.69
2019-01-18T21:57:07.899Z,102117.87
2019-01-18T22:00:22.298Z,102123.45
2019-01-18T22:03:06.644Z,102116.50
2019-01-18T22:06:02.459Z,102123.45
2019-01-18T22:09:11.859Z,102113.84
2019-01-18T22:12:29.787Z,102118.23
2019-01-18T22:15:13.980Z,102118.73
2019-01-18T22:18:15.474Z,102125.69
2019-01-18T22:21:38.851Z,102125.31
2019-01-18T22:25:01.289Z,102126.69
2019-01-18T22:27:59.938Z,102131.13
2019-01-18T22:31:00.565Z,102132.00
2019-01-18T22:34:04.726Z,102127.70
2019-01-18T22:37:04.855Z,102134.09
2019-01-18T22:40:14.280Z,102136.68
2019-01-18T22:42:57.621Z,102128.81
2019-01-18T22:46:18.647Z,102130.55
2019-01-18T22:49:24.731Z,102118.75
2019-01-18T22:52:24.334Z,102123.08
2019-01-18T22:55:20.903Z,102127.84
2019-01-18T22:58:41.233Z,102131.70
2019-01-18T23:01:47.894Z,102120.86
2019-01-18T23:05:07.952Z,102124.46
2019-01-18T23:08:21.714Z,102122.23
2019-01-18T23:11:19.515Z,102123.45
2019-01-18T23:14:21.411Z,102128.64
2019-01-18T23:17:23.077Z,102129.02
2019-01-18T23:20:28.966Z,102134.65
2019-01-18T23:23:26.161Z,102130.67
2019-01-18T23:26:28.243Z,102135.31
2019-01-18T23:29:42.064Z,102134.79
2019-01-18T23:32:34.233Z,102126.88
2019-01-18T23:35:28.710Z,102135.39
2019-01-18T23:38:51.686Z,102127.06
2019-01-18T23:41:29.775Z,102130.01
2019-01-18T23:44:18.141Z,102132.90
2019-01-18T23:47:17.297Z,102133.72
2019-01-18T23:50:12.447Z,102128.92
2019-01-18T23:52:58.805Z,102128.06
2019-01-18T23:56:00.987Z,102124.67
2019-01-18T23:58:39.519Z,102125.55
